sensor_id;sensor_type;location;lat;lon;timestamp;pressure;altitude;pressure_sealevel;temperature;humidity
49072;BME280;74284;52.610;10.236;2024-03-23T00:53:47;100398.53;;;10.19;74.64
49072;BME280;74284;52.610;10.236;2024-03-23T00:56:12;100385.56;;;10.32;74.49
49072;BME280;74284;52.610;10.236;2024-03-23T00:58:37;100387.13;;;10.17;74.31
49072;BME280;74284;52.610;10.236;2024-03-23T01:01:03;100380.50;;;10.08;74.57
49072;BME280;74284;52.610;10.236;2024-03-23T01:03:29;100378.81;;;10.06;74.81
49072;BME280;74284;52.610;10.236;2024-03-23T01:05:58;100379.53;;;10.09;74.51
49072;BME280;74284;52.610;10.236;2024-03-23T01:08:23;100381.34;;;10.09;74.38
49072;BME280;74284;52.610;10.236;2024-03-23T01:10:59;100373.44;;;10.07;74.54
49072;BME280;74284;52.610;10.236;2024-03-23T01:13:25;100369.94;;;10.07;74.67
49072;BME280;74284;52.610;10.236;2024-03-23T01:15:51;100367.00;;;10.13;74.19
49072;BME280;74284;52.610;10.236;2024-03-23T01:18:18;100357.31;;;10.12;73.91
49072;BME280;74284;52.610;10.236;2024-03-23T01:20:44;100352.97;;;10.11;74.51
49072;BME280;74284;52.610;10.236;2024-03-23T01:23:09;100355.59;;;10.11;74.39
49072;BME280;74284;52.610;10.236;2024-03-23T01:25:34;100349.31;;;10.13;74.18
49072;BME280;74284;52.610;10.236;2024-03-23T01:28:00;100354.66;;;10.12;73.98
49072;BME280;74284;52.610;10.236;2024-03-23T01:30:25;100352.19;;;10.09;74.30
49072;BME280;74284;52.610;10.236;2024-03-23T01:32:50;100348.50;;;10.30;74.19
49072;BME280;74284;52.610;10.236;2024-03-23T01:35:15;100336.91;;;10.14;73.64
49072;BME280;74284;52.610;10.236;2024-03-23T01:37:41;100333.41;;;10.13;73.74
49072;BME280;74284;52.610;10.236;2024-03-23T01:40:06;100332.59;;;10.11;74.05
49072;BME280;74284;52.610;10.236;2024-03-23T01:42:32;100324.81;;;10.08;73.94
49072;BME280;74284;52.610;10.236;2024-03-23T01:44:57;100334.41;;;10.11;73.88
49072;BME280;74284;52.610;10.236;2024-03-23T01:47:22;100326.81;;;10.03;73.86
49072;BME280;74284;52.610;10.236;2024-03-23T01:49:48;100328.78;;;10.00;74.02
49072;BME280;74284;52.610;10.236;2024-03-23T01:52:13;100319.72;;;10.23;73.78
49072;BME280;74284;52.610;10.236;2024-03-23T01:54:39;100323.38;;;10.01;73.83
49072;BME280;74284;52.610;10.236;2024-03-23T01:57:05;100321.91;;;9.95;74.18
49072;BME280;74284;52.610;10.236;2024-03-23T01:59:30;100315.66;;;9.97;74.08
49072;BME280;74284;52.610;10.236;2024-03-23T02:01:56;100306.94;;;9.94;74.01
49072;BME280;74284;52.610;10.236;2024-03-23T02:04:21;100310.50;;;9.93;73.75
49072;BME280;74284;52.610;10.236;2024-03-23T02:06:46;100300.84;;;9.92;74.63
49072;BME280;74284;52.610;10.236;2024-03-23T02:09:12;100303.41;;;9.94;73.83
49072;BME280;74284;52.610;10.236;2024-03-23T02:11:37;100300.84;;;9.92;74.62
49072;BME280;74284;52.610;10.236;2024-03-23T02:14:02;100298.31;;;10.08;73.92
49072;BME280;74284;52.610;10.236;2024-03-23T02:16:27;100295.53;;;9.92;73.98
49072;BME280;74284;52.610;10.236;2024-03-23T02:18:53;100289.47;;;9.90;74.51
49072;BME280;74284;52.610;10.236;2024-03-23T02:21:18;100290.38;;;9.89;74.07
49072;BME280;74284;52.610;10.236;2024-03-23T02:23:43;100284.31;;;9.87;73.99
49072;BME280;74284;52.610;10.236;2024-03-23T02:26:08;100283.44;;;9.87;74.10
49072;BME280;74284;52.610;10.236;2024-03-23T02:28:34;100272.84;;;9.87;74.18
49072;BME280;74284;52.610;10.236;2024-03-23T02:30:59;100274.16;;;9.78;74.23
49072;BME280;74284;52.610;10.236;2024-03-23T02:33:26;100274.38;;;9.74;73.98
49072;BME280;74284;52.610;10.236;2024-03-23T02:35:55;100267.38;;;9.73;74.44
49072;BME280;74284;52.610;10.236;2024-03-23T02:38:21;100258.78;;;9.67;74.29
49072;BME280;74284;52.610;10.236;2024-03-23T02:40:46;100253.50;;;9.67;74.84
49072;BME280;74284;52.610;10.236;2024-03-23T02:43:11;100254.03;;;9.74;74.18
49072;BME280;74284;52.610;10.236;2024-03-23T02:45:36;100250.22;;;9.80;73.33
49072;BME280;74284;52.610;10.236;2024-03-23T02:48:02;100250.81;;;9.86;73.21
49072;BME280;74284;52.610;10.236;2024-03-23T02:50:27;100246.34;;;9.87;73.18
49072;BME280;74284;52.610;10.236;2024-03-23T02:52:52;100247.97;;;9.89;72.99
49072;BME280;74284;52.610;10.236;2024-03-23T02:55:18;100241.69;;;9.92;73.13
49072;BME280;74284;52.610;10.236;2024-03-23T02:57:44;100239.94;;;9.74;73.50
49072;BME280;74284;52.610;10.236;2024-03-23T03:00:09;100237.47;;;9.88;73.20
49072;BME280;74284;52.610;10.236;2024-03-23T03:02:36;100237.25;;;9.92;72.80
49072;BME280;74284;52.610;10.236;2024-03-23T03:05:02;100240.47;;;9.63;73.79
49072;BME280;74284;52.610;10.236;2024-03-23T03:07:30;100238.72;;;9.62;74.03
49072;BME280;74284;52.610;10.236;2024-03-23T03:09:55;100239.03;;;9.56;74.69
49072;BME280;74284;52.610;10.236;2024-03-23T03:12:20;100223.91;;;9.58;74.56
49072;BME280;74284;52.610;10.236;2024-03-23T03:14:45;100229.28;;;9.56;74.31
49072;BME280;74284;52.610;10.236;2024-03-23T03:17:11;100217.94;;;9.54;74.78
49072;BME280;74284;52.610;10.236;2024-03-23T03:19:36;100225.00;;;9.54;74.68
49072;BME280;74284;52.610;10.236;2024-03-23T03:22:01;100227.94;;;9.48;74.86
49072;BME280;74284;52.610;10.236;2024-03-23T03:24:26;100227.13;;;9.64;74.63
49072;BME280;74284;52.610;10.236;2024-03-23T03:26:52;100228.78;;;9.48;74.17
49072;BME280;74284;52.610;10.236;2024-03-23T03:29:17;100224.34;;;9.49;74.44
49072;BME280;74284;52.610;10.236;2024-03-23T03:31:43;100227.88;;;9.49;74.23
49072;BME280;74284;52.610;10.236;2024-03-23T03:34:08;100211.50;;;9.41;74.63
49072;BME280;74284;52.610;10.236;2024-03-23T03:36:34;100211.84;;;9.33;74.67
49072;BME280;74284;52.610;10.236;2024-03-23T03:38:59;100216.28;;;9.14;75.31
49072;BME280;74284;52.610;10.236;2024-03-23T03:41:24;100212.84;;;9.12;74.88
49072;BME280;74284;52.610;10.236;2024-03-23T03:43:49;100220.94;;;9.09;73.99
49072;BME280;74284;52.610;10.236;2024-03-23T03:46:15;100215.56;;;9.10;74.15
49072;BME280;74284;52.610;10.236;2024-03-23T03:48:40;100205.84;;;9.11;73.72
49072;BME280;74284;52.610;10.236;2024-03-23T03:51:05;100197.78;;;9.14;73.50
49072;BME280;74284;52.610;10.236;2024-03-23T03:53:31;100202.97;;;9.15;73.21
49072;BME280;74284;52.610;10.236;2024-03-23T03:55:56;100204.78;;;9.15;73.23
49072;BME280;74284;52.610;10.236;2024-03-23T03:58:25;100208.28;;;9.15;73.44
49072;BME280;74284;52.610;10.236;2024-03-23T04:00:50;100202.91;;;9.17;73.87
49072;BME280;74284;52.610;10.236;2024-03-23T04:03:15;100196.75;;;9.16;73.06
49072;BME280;74284;52.610;10.236;2024-03-23T04:05:41;100202.84;;;9.18;73.20
49072;BME280;74284;52.610;10.236;2024-03-23T04:08:07;100202.03;;;9.16;73.50
49072;BME280;74284;52.610;10.236;2024-03-23T04:10:32;100202.13;;;9.15;73.38
49072;BME280;74284;52.610;10.236;2024-03-23T04:12:58;100196.84;;;9.15;73.13
49072;BME280;74284;52.610;10.236;2024-03-23T04:15:23;100197.69;;;9.15;72.98
49072;BME280;74284;52.610;10.236;2024-03-23T04:17:48;100196.97;;;9.12;72.85
49072;BME280;74284;52.610;10.236;2024-03-23T04:20:13;100193.41;;;9.13;73.45
49072;BME280;74284;52.610;10.236;2024-03-23T04:22:42;100203.06;;;9.14;73.91
49072;BME280;74284;52.610;10.236;2024-03-23T04:25:08;100212.63;;;9.16;73.75
49072;BME280;74284;52.610;10.236;2024-03-23T04:27:33;100206.34;;;9.19;73.13
49072;BME280;74284;52.610;10.236;2024-03-23T04:29:58;100190.97;;;9.08;73.82
49072;BME280;74284;52.610;10.236;2024-03-23T04:32:26;100191.97;;;9.06;73.83
49072;BME280;74284;52.610;10.236;2024-03-23T04:34:51;100192.97;;;9.03;74.30
49072;BME280;74284;52.610;10.236;2024-03-23T04:37:17;100197.06;;;9.10;74.23
49072;BME280;74284;52.610;10.236;2024-03-23T04:39:43;100190.16;;;9.25;74.46
49072;BME280;74284;52.610;10.236;2024-03-23T04:42:08;100189.19;;;9.09;73.75
49072;BME280;74284;52.610;10.236;2024-03-23T04:44:33;100186.75;;;9.04;74.29
49072;BME280;74284;52.610;10.236;2024-03-23T04:47:00;100186.88;;;9.01;74.33
49072;BME280;74284;52.610;10.236;2024-03-23T04:49:25;100183.38;;;9.01;74.52
49072;BME280;74284;52.610;10.236;2024-03-23T04:51:51;100168.25;;;9.04;74.20
49072;BME280;74284;52.610;10.236;2024-03-23T04:54:16;100165.50;;;9.06;74.75
49072;BME280;74284;52.610;10.236;2024-03-23T04:56:41;100169.88;;;9.07;74.18
49072;BME280;74284;52.610;10.236;2024-03-23T04:59:07;100170.03;;;9.04;74.38
49072;BME280;74284;52.610;10.236;2024-03-23T05:01:33;100170.25;;;8.99;74.71
49072;BME280;74284;52.610;10.236;2024-03-23T05:03:58;100165.84;;;8.98;74.86
49072;BME280;74284;52.610;10.236;2024-03-23T05:06:24;100163.16;;;9.00;75.07
49072;BME280;74284;52.610;10.236;2024-03-23T05:08:50;100162.31;;;8.99;74.72
49072;BME280;74284;52.610;10.236;2024-03-23T05:11:16;100166.50;;;9.22;74.15
49072;BME280;74284;52.610;10.236;2024-03-23T05:13:42;100158.44;;;9.06;74.30
49072;BME280;74284;52.610;10.236;2024-03-23T05:16:07;100165.72;;;9.01;74.40
49072;BME280;74284;52.610;10.236;2024-03-23T05:18:33;100159.69;;;9.16;74.75
49072;BME280;74284;52.610;10.236;2024-03-23T05:20:58;100157.91;;;8.98;74.38
49072;BME280;74284;52.610;10.236;2024-03-23T05:23:25;100151.22;;;8.91;74.73
49072;BME280;74284;52.610;10.236;2024-03-23T05:25:50;100154.59;;;8.95;74.28
49072;BME280;74284;52.610;10.236;2024-03-23T05:28:16;100157.06;;;8.98;74.36
49072;BME280;74284;52.610;10.236;2024-03-23T05:30:42;100156.13;;;8.99;74.36
49072;BME280;74284;52.610;10.236;2024-03-23T05:33:07;100160.56;;;8.98;74.22
49072;BME280;74284;52.610;10.236;2024-03-23T05:35:32;100162.34;;;8.98;74.12
49072;BME280;74284;52.610;10.236;2024-03-23T05:37:58;100156.63;;;8.88;74.81
49072;BME280;74284;52.610;10.236;2024-03-23T05:40:26;100151.56;;;8.83;74.62
49072;BME280;74284;52.610;10.236;2024-03-23T05:42:52;100157.63;;;8.85;75.19
49072;BME280;74284;52.610;10.236;2024-03-23T05:45:23;100151.59;;;8.82;74.80
49072;BME280;74284;52.610;10.236;2024-03-23T05:47:48;100152.19;;;8.88;74.43
49072;BME280;74284;52.610;10.236;2024-03-23T05:50:14;100155.56;;;8.92;74.20
49072;BME280;74284;52.610;10.236;2024-03-23T05:52:39;100146.66;;;8.95;74.47
49072;BME280;74284;52.610;10.236;2024-03-23T05:55:06;100140.47;;;8.94;74.15
49072;BME280;74284;52.610;10.236;2024-03-23T05:57:31;100137.88;;;9.11;72.94
49072;BME280;74284;52.610;10.236;2024-03-23T05:59:56;100134.81;;;9.02;73.47
49072;BME280;74284;52.610;10.236;2024-03-23T06:02:22;100129.63;;;9.00;73.37
49072;BME280;74284;52.610;10.236;2024-03-23T06:04:48;100130.69;;;8.96;73.81
49072;BME280;74284;52.610;10.236;2024-03-23T06:07:13;100129.75;;;8.97;73.87
49072;BME280;74284;52.610;10.236;2024-03-23T06:09:42;100128.97;;;8.95;73.83
49072;BME280;74284;52.610;10.236;2024-03-23T06:12:07;100121.72;;;8.99;73.39
49072;BME280;74284;52.610;10.236;2024-03-23T06:14:33;100111.09;;;9.00;73.38
49072;BME280;74284;52.610;10.236;2024-03-23T06:16:59;100112.72;;;9.03;73.40
49072;BME280;74284;52.610;10.236;2024-03-23T06:19:25;100109.22;;;9.02;73.50
49072;BME280;74284;52.610;10.236;2024-03-23T06:21:52;100116.16;;;9.05;73.54
49072;BME280;74284;52.610;10.236;2024-03-23T06:24:17;100119.59;;;9.07;73.45
49072;BME280;74284;52.610;10.236;2024-03-23T06:26:43;100123.81;;;9.11;73.81
49072;BME280;74284;52.610;10.236;2024-03-23T06:29:08;100127.31;;;9.11;73.45
49072;BME280;74284;52.610;10.236;2024-03-23T06:31:34;100123.72;;;9.12;73.72
49072;BME280;74284;52.610;10.236;2024-03-23T06:33:59;100116.13;;;9.24;72.94
49072;BME280;74284;52.610;10.236;2024-03-23T06:36:24;100115.91;;;9.28;72.42
49072;BME280;74284;52.610;10.236;2024-03-23T06:38:50;100118.69;;;9.25;73.06
49072;BME280;74284;52.610;10.236;2024-03-23T06:41:15;100129.94;;;9.11;73.51
49072;BME280;74284;52.610;10.236;2024-03-23T06:43:40;100114.72;;;9.16;73.22
49072;BME280;74284;52.610;10.236;2024-03-23T06:46:06;100115.31;;;9.04;73.46
49072;BME280;74284;52.610;10.236;2024-03-23T06:48:31;100120.31;;;9.10;72.79
49072;BME280;74284;52.610;10.236;2024-03-23T06:50:57;100115.88;;;9.11;73.23
49072;BME280;74284;52.610;10.236;2024-03-23T06:53:22;100120.84;;;9.17;72.63
49072;BME280;74284;52.610;10.236;2024-03-23T06:55:52;100122.44;;;9.02;73.57
49072;BME280;74284;52.610;10.236;2024-03-23T06:58:19;100125.69;;;9.09;73.09
49072;BME280;74284;52.610;10.236;2024-03-23T07:00:45;100133.19;;;8.99;73.44
49072;BME280;74284;52.610;10.236;2024-03-23T07:03:10;100131.31;;;9.01;73.56
49072;BME280;74284;52.610;10.236;2024-03-23T07:05:35;100137.34;;;9.05;73.09
49072;BME280;74284;52.610;10.236;2024-03-23T07:08:00;100128.69;;;9.01;73.23
49072;BME280;74284;52.610;10.236;2024-03-23T07:10:26;100137.47;;;9.02;73.27
49072;BME280;74284;52.610;10.236;2024-03-23T07:12:51;100137.59;;;8.99;73.06
49072;BME280;74284;52.610;10.236;2024-03-23T07:15:16;100136.91;;;8.95;73.38
49072;BME280;74284;52.610;10.236;2024-03-23T07:17:42;100123.91;;;8.90;73.56
49072;BME280;74284;52.610;10.236;2024-03-23T07:20:07;100121.41;;;8.87;73.17
49072;BME280;74284;52.610;10.236;2024-03-23T07:22:35;100127.53;;;8.88;72.95
49072;BME280;74284;52.610;10.236;2024-03-23T07:25:01;100120.31;;;8.91;73.32
49072;BME280;74284;52.610;10.236;2024-03-23T07:27:26;100123.81;;;8.92;73.37
49072;BME280;74284;52.610;10.236;2024-03-23T07:29:52;100116.59;;;8.96;72.58
49072;BME280;74284;52.610;10.236;2024-03-23T07:32:17;100121.72;;;8.99;73.06
49072;BME280;74284;52.610;10.236;2024-03-23T07:34:42;100120.44;;;9.07;73.15
49072;BME280;74284;52.610;10.236;2024-03-23T07:37:09;100121.81;;;8.97;73.22
49072;BME280;74284;52.610;10.236;2024-03-23T07:39:35;100126.88;;;9.02;72.75
49072;BME280;74284;52.610;10.236;2024-03-23T07:42:00;100130.25;;;9.05;72.68
49072;BME280;74284;52.610;10.236;2024-03-23T07:44:25;100123.88;;;9.09;73.11
49072;BME280;74284;52.610;10.236;2024-03-23T07:46:51;100130.53;;;9.18;72.70
49072;BME280;74284;52.610;10.236;2024-03-23T07:49:16;100128.44;;;9.25;72.69
49072;BME280;74284;52.610;10.236;2024-03-23T07:51:41;100136.38;;;9.25;72.82
49072;BME280;74284;52.610;10.236;2024-03-23T07:54:06;100132.50;;;9.32;72.50
49072;BME280;74284;52.610;10.236;2024-03-23T07:56:32;100132.13;;;9.39;71.88
49072;BME280;74284;52.610;10.236;2024-03-23T07:58:57;100136.28;;;9.45;71.73
49072;BME280;74284;52.610;10.236;2024-03-23T08:01:22;100130.19;;;9.43;72.04
49072;BME280;74284;52.610;10.236;2024-03-23T08:03:49;100128.16;;;9.48;72.09
49072;BME280;74284;52.610;10.236;2024-03-23T08:06:18;100126.78;;;9.41;72.04
49072;BME280;74284;52.610;10.236;2024-03-23T08:08:46;100127.19;;;9.51;71.96
49072;BME280;74284;52.610;10.236;2024-03-23T08:11:12;100119.78;;;9.57;72.45
49072;BME280;74284;52.610;10.236;2024-03-23T08:13:39;100114.34;;;9.78;72.48
49072;BME280;74284;52.610;10.236;2024-03-23T08:16:05;100113.31;;;9.80;72.03
49072;BME280;74284;52.610;10.236;2024-03-23T08:18:30;100108.44;;;9.90;71.14
49072;BME280;74284;52.610;10.236;2024-03-23T08:20:59;100115.50;;;10.07;71.37
49072;BME280;74284;52.610;10.236;2024-03-23T08:23:26;100107.31;;;10.29;71.31
49072;BME280;74284;52.610;10.236;2024-03-23T08:25:52;100110.06;;;10.27;70.15
49072;BME280;74284;52.610;10.236;2024-03-23T08:28:22;100111.03;;;10.42;70.42
49072;BME280;74284;52.610;10.236;2024-03-23T08:30:47;100107.78;;;10.53;70.47
49072;BME280;74284;52.610;10.236;2024-03-23T08:33:13;100116.19;;;10.61;69.46
49072;BME280;74284;52.610;10.236;2024-03-23T08:35:38;100111.19;;;10.72;69.13
49072;BME280;74284;52.610;10.236;2024-03-23T08:38:03;100110.84;;;10.78;69.28
49072;BME280;74284;52.610;10.236;2024-03-23T08:40:29;100113.66;;;10.75;69.07
49072;BME280;74284;52.610;10.236;2024-03-23T08:42:54;100120.16;;;10.69;68.90
49072;BME280;74284;52.610;10.236;2024-03-23T08:45:19;100117.41;;;10.71;68.10
49072;BME280;74284;52.610;10.236;2024-03-23T08:47:44;100117.03;;;10.45;68.69
49072;BME280;74284;52.610;10.236;2024-03-23T08:50:10;100113.34;;;10.48;68.83
49072;BME280;74284;52.610;10.236;2024-03-23T08:52:35;100120.66;;;10.60;68.00
49072;BME280;74284;52.610;10.236;2024-03-23T08:55:00;100110.16;;;10.90;67.38
49072;BME280;74284;52.610;10.236;2024-03-23T08:57:26;100116.66;;;11.01;66.80
49072;BME280;74284;52.610;10.236;2024-03-23T08:59:51;100107.84;;;11.16;65.68
49072;BME280;74284;52.610;10.236;2024-03-23T09:02:17;100112.88;;;11.20;66.13
49072;BME280;74284;52.610;10.236;2024-03-23T09:04:44;100116.22;;;11.24;65.99
49072;BME280;74284;52.610;10.236;2024-03-23T09:07:09;100109.78;;;11.60;65.19
49072;BME280;74284;52.610;10.236;2024-03-23T09:09:34;100115.97;;;11.90;63.02
49072;BME280;74284;52.610;10.236;2024-03-23T09:11:59;100122.81;;;11.33;63.35
49072;BME280;74284;52.610;10.236;2024-03-23T09:14:25;100115.88;;;11.30;64.02
49072;BME280;74284;52.610;10.236;2024-03-23T09:16:50;100115.44;;;11.38;63.83
49072;BME280;74284;52.610;10.236;2024-03-23T09:19:17;100107.22;;;11.58;60.07
49072;BME280;74284;52.610;10.236;2024-03-23T09:21:42;100106.53;;;11.39;62.79
49072;BME280;74284;52.610;10.236;2024-03-23T09:24:07;100118.38;;;11.33;60.24
49072;BME280;74284;52.610;10.236;2024-03-23T09:26:32;100114.31;;;11.42;62.44
49072;BME280;74284;52.610;10.236;2024-03-23T09:28:58;100112.41;;;11.44;61.69
49072;BME280;74284;52.610;10.236;2024-03-23T09:31:23;100114.59;;;11.37;60.89
49072;BME280;74284;52.610;10.236;2024-03-23T09:33:48;100119.16;;;11.35;61.16
49072;BME280;74284;52.610;10.236;2024-03-23T09:36:14;100112.47;;;11.28;60.94
49072;BME280;74284;52.610;10.236;2024-03-23T09:38:40;100113.84;;;11.51;57.97
49072;BME280;74284;52.610;10.236;2024-03-23T09:41:09;100117.66;;;11.30;59.34
49072;BME280;74284;52.610;10.236;2024-03-23T09:43:35;100112.19;;;11.33;59.71
49072;BME280;74284;52.610;10.236;2024-03-23T09:46:01;100110.16;;;11.22;56.51
49072;BME280;74284;52.610;10.236;2024-03-23T09:48:27;100111.47;;;10.99;58.29
49072;BME280;74284;52.610;10.236;2024-03-23T09:50:52;100107.41;;;10.92;58.58
49072;BME280;74284;52.610;10.236;2024-03-23T09:53:18;100114.00;;;10.85;57.87
49072;BME280;74284;52.610;10.236;2024-03-23T09:55:43;100116.81;;;11.29;55.91
49072;BME280;74284;52.610;10.236;2024-03-23T09:58:12;100099.69;;;11.51;56.41
49072;BME280;74284;52.610;10.236;2024-03-23T10:00:38;100092.88;;;11.91;56.23
49072;BME280;74284;52.610;10.236;2024-03-23T10:03:04;100082.56;;;12.43;53.48
49072;BME280;74284;52.610;10.236;2024-03-23T10:05:31;100086.97;;;12.73;53.76
49072;BME280;74284;52.610;10.236;2024-03-23T10:07:57;100093.31;;;12.28;53.69
49072;BME280;74284;52.610;10.236;2024-03-23T10:10:22;100106.47;;;11.86;53.01
49072;BME280;74284;52.610;10.236;2024-03-23T10:12:50;100104.22;;;11.49;55.75
49072;BME280;74284;52.610;10.236;2024-03-23T10:17:44;100107.00;;;11.00;56.94
49072;BME280;74284;52.610;10.236;2024-03-23T10:20:10;100103.13;;;10.89;56.78
49072;BME280;74284;52.610;10.236;2024-03-23T10:22:37;100112.28;;;10.84;58.78
49072;BME280;74284;52.610;10.236;2024-03-23T10:25:10;100104.38;;;10.66;57.28
49072;BME280;74284;52.610;10.236;2024-03-23T10:27:36;100102.28;;;10.73;58.88
49072;BME280;74284;52.610;10.236;2024-03-23T10:30:11;100092.66;;;11.34;59.04
49072;BME280;74284;52.610;10.236;2024-03-23T10:32:37;100088.97;;;11.52;57.67
49072;BME280;74284;52.610;10.236;2024-03-23T10:35:18;100082.47;;;12.16;57.46
49072;BME280;74284;52.610;10.236;2024-03-23T10:37:45;100073.16;;;11.95;57.41
49072;BME280;74284;52.610;10.236;2024-03-23T10:40:12;100081.09;;;11.81;56.37
49072;BME280;74284;52.610;10.236;2024-03-23T10:42:38;100090.13;;;11.92;53.01
49072;BME280;74284;52.610;10.236;2024-03-23T10:45:07;100072.31;;;12.23;54.01
49072;BME280;74284;52.610;10.236;2024-03-23T10:47:36;100075.84;;;12.38;53.23
49072;BME280;74284;52.610;10.236;2024-03-23T10:50:03;100081.69;;;12.00;51.55
49072;BME280;74284;52.610;10.236;2024-03-23T10:52:30;100087.75;;;11.88;53.35
49072;BME280;74284;52.610;10.236;2024-03-23T10:54:56;100088.28;;;11.79;53.92
49072;BME280;74284;52.610;10.236;2024-03-23T10:57:34;100087.13;;;11.68;55.29
49072;BME280;74284;52.610;10.236;2024-03-23T11:00:02;100088.63;;;12.03;56.00
49072;BME280;74284;52.610;10.236;2024-03-23T11:02:28;100083.13;;;12.34;56.00
49072;BME280;74284;52.610;10.236;2024-03-23T11:04:54;100068.44;;;12.71;55.15
49072;BME280;74284;52.610;10.236;2024-03-23T11:09:51;100071.22;;;12.97;54.23
49072;BME280;74284;52.610;10.236;2024-03-23T11:15:01;100126.63;;;11.75;53.30
49072;BME280;74284;52.610;10.236;2024-03-23T11:17:27;100139.00;;;10.96;55.04
49072;BME280;74284;52.610;10.236;2024-03-23T11:20:05;100165.41;;;10.33;53.25
49072;BME280;74284;52.610;10.236;2024-03-23T11:25:12;100187.06;;;9.53;57.53
49072;BME280;74284;52.610;10.236;2024-03-23T11:27:37;100194.53;;;9.26;58.88
49072;BME280;74284;52.610;10.236;2024-03-23T11:30:09;100191.63;;;9.13;60.79
49072;BME280;74284;52.610;10.236;2024-03-23T11:32:35;100200.97;;;9.02;60.43
49072;BME280;74284;52.610;10.236;2024-03-23T11:35:00;100196.31;;;9.07;61.19
49072;BME280;74284;52.610;10.236;2024-03-23T11:37:25;100184.75;;;9.09;61.74
49072;BME280;74284;52.610;10.236;2024-03-23T11:39:52;100174.81;;;9.14;61.28
49072;BME280;74284;52.610;10.236;2024-03-23T11:42:17;100171.28;;;9.33;63.23
49072;BME280;74284;52.610;10.236;2024-03-23T11:44:42;100166.53;;;9.39;61.33
49072;BME280;74284;52.610;10.236;2024-03-23T11:47:08;100159.25;;;9.62;61.46
49072;BME280;74284;52.610;10.236;2024-03-23T11:49:34;100150.41;;;9.80;62.01
49072;BME280;74284;52.610;10.236;2024-03-23T11:52:05;100148.53;;;10.17;60.89
49072;BME280;74284;52.610;10.236;2024-03-23T11:54:31;100141.03;;;10.76;62.16
49072;BME280;74284;52.610;10.236;2024-03-23T11:57:00;100137.38;;;10.78;59.88
49072;BME280;74284;52.610;10.236;2024-03-23T12:02:00;100126.88;;;11.08;60.13
49072;BME280;74284;52.610;10.236;2024-03-23T12:04:28;100116.97;;;11.42;59.57
49072;BME280;74284;52.610;10.236;2024-03-23T12:07:13;100118.47;;;11.32;61.49
49072;BME280;74284;52.610;10.236;2024-03-23T12:09:39;100124.59;;;11.64;59.02
49072;BME280;74284;52.610;10.236;2024-03-23T12:12:07;100129.00;;;11.49;58.23
49072;BME280;74284;52.610;10.236;2024-03-23T12:14:33;100119.31;;;11.32;58.23
49072;BME280;74284;52.610;10.236;2024-03-23T12:17:07;100117.44;;;11.18;57.80
49072;BME280;74284;52.610;10.236;2024-03-23T12:19:32;100132.69;;;11.15;59.03
49072;BME280;74284;52.610;10.236;2024-03-23T12:21:57;100122.31;;;11.10;58.31
49072;BME280;74284;52.610;10.236;2024-03-23T12:24:22;100116.03;;;10.64;57.83
49072;BME280;74284;52.610;10.236;2024-03-23T12:26:48;100105.50;;;10.62;57.66
49072;BME280;74284;52.610;10.236;2024-03-23T12:29:15;100092.84;;;10.83;57.20
49072;BME280;74284;52.610;10.236;2024-03-23T12:31:40;100095.19;;;11.05;55.15
49072;BME280;74284;52.610;10.236;2024-03-23T12:34:06;100097.06;;;11.19;55.66
49072;BME280;74284;52.610;10.236;2024-03-23T12:36:31;100108.78;;;11.31;55.22
49072;BME280;74284;52.610;10.236;2024-03-23T12:38:56;100098.59;;;10.91;54.62
49072;BME280;74284;52.610;10.236;2024-03-23T12:41:21;100100.75;;;11.01;54.52
49072;BME280;74284;52.610;10.236;2024-03-23T12:43:48;100100.56;;;10.88;55.13
49072;BME280;74284;52.610;10.236;2024-03-23T12:46:14;100105.13;;;11.47;53.91
49072;BME280;74284;52.610;10.236;2024-03-23T12:48:39;100100.66;;;11.18;53.21
49072;BME280;74284;52.610;10.236;2024-03-23T12:51:04;100102.59;;;10.99;54.60
49072;BME280;74284;52.610;10.236;2024-03-23T12:53:29;100094.50;;;11.17;53.56
49072;BME280;74284;52.610;10.236;2024-03-23T12:55:55;100087.00;;;11.56;53.31
49072;BME280;74284;52.610;10.236;2024-03-23T12:58:22;100081.22;;;12.08;53.00
49072;BME280;74284;52.610;10.236;2024-03-23T13:00:47;100080.47;;;12.48;51.16
49072;BME280;74284;52.610;10.236;2024-03-23T13:03:13;100078.22;;;12.42;51.00
49072;BME280;74284;52.610;10.236;2024-03-23T13:05:39;100084.41;;;12.71;51.01
49072;BME280;74284;52.610;10.236;2024-03-23T13:08:05;100081.81;;;12.84;49.06
49072;BME280;74284;52.610;10.236;2024-03-23T13:10:30;100069.75;;;12.79;49.73
49072;BME280;74284;52.610;10.236;2024-03-23T13:12:56;100080.56;;;12.90;48.97
49072;BME280;74284;52.610;10.236;2024-03-23T13:15:21;100078.34;;;12.96;47.09
49072;BME280;74284;52.610;10.236;2024-03-23T13:17:46;100076.25;;;13.02;49.59
49072;BME280;74284;52.610;10.236;2024-03-23T13:20:11;100081.84;;;13.11;48.27
49072;BME280;74284;52.610;10.236;2024-03-23T13:22:39;100078.56;;;12.93;47.95
49072;BME280;74284;52.610;10.236;2024-03-23T13:25:05;100079.13;;;13.26;47.58
49072;BME280;74284;52.610;10.236;2024-03-23T13:27:30;100085.13;;;12.88;48.54
49072;BME280;74284;52.610;10.236;2024-03-23T13:29:55;100077.31;;;12.85;48.36
49072;BME280;74284;52.610;10.236;2024-03-23T13:32:20;100074.97;;;12.80;47.10
49072;BME280;74284;52.610;10.236;2024-03-23T13:34:46;100074.44;;;13.29;47.77
49072;BME280;74284;52.610;10.236;2024-03-23T13:37:15;100066.94;;;13.48;47.36
49072;BME280;74284;52.610;10.236;2024-03-23T13:39:40;100062.56;;;13.87;45.54
49072;BME280;74284;52.610;10.236;2024-03-23T13:42:07;100068.53;;;13.78;46.28
49072;BME280;74284;52.610;10.236;2024-03-23T13:44:34;100060.44;;;13.80;46.65